RoSS Sea — WDE3122 — position and weather

sailwx.info

Track history (hours):
 
Tides and Currents Weather Stations Pressure Air Temp Water Temp Dewpoint Dewpoint Depression Visibility Wind Speed Wind Dir Waves Ship Positions

RoSS Sea

Owner: Kirby Inland Marine, LP, Houston, TX. More information available from US FCC via Universal Licensing System and Coast Guard Vessel Documentation Center.

Last reported at 2016-May-29 22:32 UTC. Time now 2016-May-30 03:04 UTC.
Position N 40°39' W 074°10'.

Length 30 m; draft 5 m.

Type: Towing. MMSI: 367334360.

Date/timePositionNaut miles runAvg speedWind from/ knotsBaromVisibWave heightAir tempDewpointWater temp
2016-May-29 22:32N 40°39' W 074°10'0 0.0
2016-May-29 19:23N 40°39' W 074°10'0 0.0
2016-May-29 18:33N 40°39' W 074°10'0 0.0
2016-May-29 17:32N 40°39' W 074°10'0 0.0
2016-May-29 16:33N 40°39' W 074°10'0 0.0
2016-May-29 15:31N 40°39' W 074°10'0 0.0
2016-May-29 14:16N 40°39' W 074°10'0 0.0
2016-May-29 13:33N 40°39' W 074°10'0 0.0
2016-May-29 12:21N 40°39' W 074°10'0 0.0
2016-May-29 11:31N 40°39' W 074°10'0 0.0
2016-May-29 08:19N 40°39' W 074°10'0 0.0
2016-May-29 07:33N 40°39' W 074°10'0 0.0
2016-May-29 06:33N 40°39' W 074°10'0 0.0
2016-May-29 02:31N 40°38' W 074°10'0 0.0
2016-May-28 23:14N 40°38' W 074°10'5 6.9
2016-May-28 22:34N 40°38' W 074°04'0 0.1
2016-May-28 21:34N 40°38' W 074°04'2 1.5
2016-May-28 20:34N 40°39' W 074°05'3 1.7
2016-May-28 18:33N 40°39' W 074°10'0 0.0
2016-May-28 17:21N 40°39' W 074°10'0 0.0
2016-May-28 15:29N 40°39' W 074°10'0 0.0
2016-May-28 14:23N 40°39' W 074°10'0 0.0
2016-May-28 13:34N 40°39' W 074°10'0 0.0
2016-May-28 12:34N 40°39' W 074°10'0 0.0
2016-May-28 11:33N 40°39' W 074°10'0 0.0
2016-May-28 10:34N 40°39' W 074°10'0 0.0
2016-May-28 09:33N 40°39' W 074°10'0 0.0
2016-May-28 08:33N 40°39' W 074°10'0 0.0
2016-May-28 07:33N 40°39' W 074°10'0 0.0
2016-May-28 06:18N 40°39' W 074°10'0 0.0
2016-May-28 05:22N 40°39' W 074°10'0 0.0
2016-May-28 01:31N 40°39' W 074°10'0 0.0
2016-May-28 00:34N 40°39' W 074°10'0 0.0
2016-May-27 23:34N 40°39' W 074°10'0 0.0
2016-May-27 22:33N 40°39' W 074°10'0 0.0
2016-May-27 21:32N 40°39' W 074°10'0 0.1
2016-May-27 20:22N 40°39' W 074°10'5 6.2
2016-May-27 19:33N 40°39' W 074°03'5 0.1
2016-May-25 21:32N 40°39' W 074°10'0 0.0
2016-May-25 20:32N 40°39' W 074°10'0 0.0
2016-May-25 19:31N 40°39' W 074°10'0 0.0
2016-May-25 18:24N 40°39' W 074°10'0 0.0
2016-May-25 16:32N 40°38' W 074°10'0 0.0
2016-May-25 11:33N 40°39' W 074°10'0 0.0
2016-May-25 10:31N 40°39' W 074°10'0 0.0
2016-May-25 09:28N 40°39' W 074°10'0 0.0
2016-May-25 08:31N 40°39' W 074°10'0 0.0
2016-May-25 07:33N 40°39' W 074°10'0 0.0
2016-May-25 06:33N 40°39' W 074°10'8 7.9
2016-May-25 05:33N 40°42' W 074°00'2 1.6
2016-May-25 04:33N 40°42' W 073°58'0 0.1
2016-May-25 03:33N 40°42' W 073°58'1 1.4
2016-May-25 02:33N 40°42' W 074°00'8 8.0
2016-May-25 01:33N 40°38' W 074°10'0 0.0
2016-May-25 00:33N 40°38' W 074°10'0 0.0
2016-May-24 23:33N 40°38' W 074°10'0 0.0
2016-May-24 22:33N 40°38' W 074°10'0 0.0
2016-May-24 21:33N 40°38' W 074°10'0 0.0
2016-May-24 20:33N 40°38' W 074°10'0 0.0
2016-May-24 19:33N 40°38' W 074°10'0 0.0
2016-May-24 18:33N 40°38' W 074°10'0 0.0
2016-May-24 17:33N 40°38' W 074°10'0 0.0
2016-May-24 16:33N 40°38' W 074°10'0 0.0
2016-May-24 15:33N 40°38' W 074°10'0 0.0
2016-May-24 14:28N 40°38' W 074°10'0 0.0
2016-May-24 13:31N 40°38' W 074°10'0 0.0
2016-May-24 12:33N 40°38' W 074°10'0 0.0
2016-May-24 11:34N 40°38' W 074°10'0 0.0
2016-May-24 10:33N 40°38' W 074°10'0 0.0
2016-May-24 09:33N 40°38' W 074°10'0 0.0
2016-May-24 08:32N 40°38' W 074°10'0 0.0
2016-May-24 07:33N 40°38' W 074°10'0 0.0
2016-May-24 06:33N 40°38' W 074°10'1 0.5
2016-May-24 05:32N 40°39' W 074°11'1 0.4
2016-May-24 02:33N 40°39' W 074°09'1 1.2
2016-May-24 01:33N 40°39' W 074°07'2 1.9
2016-May-24 00:33N 40°38' W 074°10'0 0.0
2016-May-23 23:33N 40°38' W 074°10'0 0.0
2016-May-23 22:18N 40°38' W 074°10'0 0.0
2016-May-23 21:33N 40°38' W 074°10'0 0.0
2016-May-23 20:32N 40°38' W 074°10'0 0.0
2016-May-23 19:33N 40°38' W 074°10'0 0.0
2016-May-23 18:33N 40°38' W 074°10'0 0.0
2016-May-23 17:33N 40°38' W 074°10'0 0.0
2016-May-23 16:33N 40°38' W 074°10'0 0.0
2016-May-23 15:32N 40°38' W 074°10'0 0.0
2016-May-23 14:31N 40°38' W 074°10'0 0.0
2016-May-23 13:33N 40°38' W 074°10'0 0.0
2016-May-23 12:32N 40°38' W 074°10'0 0.0
2016-May-23 11:28N 40°38' W 074°10'0 0.0
2016-May-23 10:33N 40°38' W 074°10'0 0.0
2016-May-23 09:33N 40°38' W 074°10'0 0.0
2016-May-23 08:33N 40°38' W 074°10'0 0.0
2016-May-23 07:30N 40°38' W 074°10'0 0.0
2016-May-23 06:32N 40°38' W 074°10'0 0.0
2016-May-23 05:27N 40°38' W 074°10'0 0.0
2016-May-23 04:27N 40°38' W 074°10'0 0.0
2016-May-23 03:33N 40°38' W 074°10'3 3.2
2016-May-23 02:33N 40°39' W 074°06'2 1.8
2016-May-23 01:32N 40°39' W 074°08'4 3.8
2016-May-23 00:33N 40°42' W 074°07'4 4.3
2016-May-22 23:33N 40°38' W 074°10'0 0.0
2016-May-22 22:31N 40°38' W 074°10'0 0.0
2016-May-22 19:33N 40°38' W 074°10'0 0.0
2016-May-22 18:33N 40°38' W 074°10'0 0.0
2016-May-22 17:29N 40°38' W 074°10'0 0.0
2016-May-22 16:26N 40°38' W 074°10'1 1.1
2016-May-22 15:33N 40°39' W 074°09'3 3.5
2016-May-22 14:33N 40°42' W 074°07'6 0.5
2016-May-22 01:13N 40°37' W 074°12'5 7.4
2016-May-22 00:33N 40°39' W 074°06'3 2.9
2016-May-21 23:33N 40°38' W 074°10'0 0.0
2016-May-21 22:33N 40°38' W 074°10'0 0.0
2016-May-21 21:33N 40°38' W 074°10'0 0.0
2016-May-21 20:33N 40°38' W 074°10'0 0.0
2016-May-21 19:33N 40°38' W 074°10'0 0.0
2016-May-21 18:33N 40°38' W 074°10'0 0.0
2016-May-21 17:33N 40°38' W 074°10'0 0.0
2016-May-21 16:33N 40°38' W 074°10'0 0.0
2016-May-21 15:33N 40°38' W 074°10'0 0.0
2016-May-21 14:33N 40°38' W 074°10'0 0.0
2016-May-21 13:33N 40°38' W 074°10'0 0.0
2016-May-21 12:33N 40°38' W 074°10'0 0.0
2016-May-21 11:33N 40°38' W 074°10'0 0.0
2016-May-21 10:33N 40°38' W 074°10'0 0.0
2016-May-21 09:34N 40°38' W 074°10'0 0.0
2016-May-21 08:33N 40°38' W 074°10'0 0.0
2016-May-21 07:33N 40°38' W 074°10'0 0.0
2016-May-21 06:33N 40°38' W 074°10'0 0.0
2016-May-21 05:33N 40°38' W 074°10'0 0.0
2016-May-21 04:33N 40°38' W 074°10'9 8.7
2016-May-21 03:33N 40°42' W 073°60'1 0.9
2016-May-21 02:33N 40°42' W 073°58'3 2.7
2016-May-21 01:33N 40°40' W 074°01'0 0.1
2016-May-21 00:33N 40°40' W 074°01'0 0.0
2016-May-20 23:33N 40°40' W 074°01'0 0.0
2016-May-20 22:33N 40°40' W 074°01'0 0.0
2016-May-20 21:33N 40°40' W 074°01'0 0.0
2016-May-20 20:33N 40°40' W 074°01'0 0.0
2016-May-20 19:33N 40°40' W 074°01'0 0.0
2016-May-20 18:33N 40°40' W 074°01'0 0.0
2016-May-20 17:33N 40°40' W 074°01'0 0.0
2016-May-20 16:33N 40°40' W 074°01'0 0.0
2016-May-20 15:33N 40°40' W 074°01'0 0.0
2016-May-20 14:33N 40°40' W 074°01'0 0.0
2016-May-20 13:33N 40°40' W 074°01'1 0.9
2016-May-20 12:33N 40°40' W 074°02'5 5.3
2016-May-20 11:33N 40°38' W 074°09'1 0.8
2016-May-20 10:26N 40°39' W 074°10'0 0.0
2016-May-20 09:30N 40°39' W 074°10'0 0.0
2016-May-20 08:32N 40°39' W 074°10'0 0.0
2016-May-20 07:31N 40°39' W 074°10'0 0.0
2016-May-20 06:34N 40°39' W 074°10'0 0.0
2016-May-20 05:34N 40°39' W 074°10'0 0.0
2016-May-20 04:33N 40°39' W 074°10'0 0.0
2016-May-20 03:33N 40°39' W 074°10'0 0.0
2016-May-20 02:33N 40°39' W 074°10'0 0.0
2016-May-20 01:33N 40°39' W 074°10'0 0.0
2016-May-20 00:33N 40°39' W 074°10'0 0.0
2016-May-19 23:32N 40°39' W 074°10'  
Track history (hours):
 
Tides and Currents Weather Stations Pressure Air Temp Water Temp Dewpoint Dewpoint Depression Visibility Wind Speed Wind Dir Waves Ship Positions

RoSS Sea

Owner: Kirby Inland Marine, LP, Houston, TX. More information available from US FCC via Universal Licensing System and Coast Guard Vessel Documentation Center.

Last reported at 2016-May-29 22:32 UTC. Time now 2016-May-30 03:04 UTC.
Position N 40°39' W 074°10'.

Length 30 m; draft 5 m.

Type: Towing. MMSI: 367334360.

Date/timePositionNaut miles runAvg speedWind from/ knotsBaromVisibWave heightAir tempDewpointWater temp
2016-May-29 22:32N 40°39' W 074°10'0 0.0
2016-May-29 19:23N 40°39' W 074°10'0 0.0
2016-May-29 18:33N 40°39' W 074°10'0 0.0
2016-May-29 17:32N 40°39' W 074°10'0 0.0
2016-May-29 16:33N 40°39' W 074°10'0 0.0
2016-May-29 15:31N 40°39' W 074°10'0 0.0
2016-May-29 14:16N 40°39' W 074°10'0 0.0
2016-May-29 13:33N 40°39' W 074°10'0 0.0
2016-May-29 12:21N 40°39' W 074°10'0 0.0
2016-May-29 11:31N 40°39' W 074°10'0 0.0
2016-May-29 08:19N 40°39' W 074°10'0 0.0
2016-May-29 07:33N 40°39' W 074°10'0 0.0
2016-May-29 06:33N 40°39' W 074°10'0 0.0
2016-May-29 02:31N 40°38' W 074°10'0 0.0
2016-May-28 23:14N 40°38' W 074°10'5 6.9
2016-May-28 22:34N 40°38' W 074°04'0 0.1
2016-May-28 21:34N 40°38' W 074°04'2 1.5
2016-May-28 20:34N 40°39' W 074°05'3 1.7
2016-May-28 18:33N 40°39' W 074°10'0 0.0
2016-May-28 17:21N 40°39' W 074°10'0 0.0
2016-May-28 15:29N 40°39' W 074°10'0 0.0
2016-May-28 14:23N 40°39' W 074°10'0 0.0
2016-May-28 13:34N 40°39' W 074°10'0 0.0
2016-May-28 12:34N 40°39' W 074°10'0 0.0
2016-May-28 11:33N 40°39' W 074°10'0 0.0
2016-May-28 10:34N 40°39' W 074°10'0 0.0
2016-May-28 09:33N 40°39' W 074°10'0 0.0
2016-May-28 08:33N 40°39' W 074°10'0 0.0
2016-May-28 07:33N 40°39' W 074°10'0 0.0
2016-May-28 06:18N 40°39' W 074°10'0 0.0
2016-May-28 05:22N 40°39' W 074°10'0 0.0
2016-May-28 01:31N 40°39' W 074°10'0 0.0
2016-May-28 00:34N 40°39' W 074°10'0 0.0
2016-May-27 23:34N 40°39' W 074°10'0 0.0
2016-May-27 22:33N 40°39' W 074°10'0 0.0
2016-May-27 21:32N 40°39' W 074°10'0 0.1
2016-May-27 20:22N 40°39' W 074°10'5 6.2
2016-May-27 19:33N 40°39' W 074°03'5 0.1
2016-May-25 21:32N 40°39' W 074°10'0 0.0
2016-May-25 20:32N 40°39' W 074°10'0 0.0
2016-May-25 19:31N 40°39' W 074°10'0 0.0
2016-May-25 18:24N 40°39' W 074°10'0 0.0
2016-May-25 16:32N 40°38' W 074°10'0 0.0
2016-May-25 11:33N 40°39' W 074°10'0 0.0
2016-May-25 10:31N 40°39' W 074°10'0 0.0
2016-May-25 09:28N 40°39' W 074°10'0 0.0
2016-May-25 08:31N 40°39' W 074°10'0 0.0
2016-May-25 07:33N 40°39' W 074°10'0 0.0
2016-May-25 06:33N 40°39' W 074°10'8 7.9
2016-May-25 05:33N 40°42' W 074°00'2 1.6
2016-May-25 04:33N 40°42' W 073°58'0 0.1
2016-May-25 03:33N 40°42' W 073°58'1 1.4
2016-May-25 02:33N 40°42' W 074°00'8 8.0
2016-May-25 01:33N 40°38' W 074°10'0 0.0
2016-May-25 00:33N 40°38' W 074°10'0 0.0
2016-May-24 23:33N 40°38' W 074°10'0 0.0
2016-May-24 22:33N 40°38' W 074°10'0 0.0
2016-May-24 21:33N 40°38' W 074°10'0 0.0
2016-May-24 20:33N 40°38' W 074°10'0 0.0
2016-May-24 19:33N 40°38' W 074°10'0 0.0
2016-May-24 18:33N 40°38' W 074°10'0 0.0
2016-May-24 17:33N 40°38' W 074°10'0 0.0
2016-May-24 16:33N 40°38' W 074°10'0 0.0
2016-May-24 15:33N 40°38' W 074°10'0 0.0
2016-May-24 14:28N 40°38' W 074°10'0 0.0
2016-May-24 13:31N 40°38' W 074°10'0 0.0
2016-May-24 12:33N 40°38' W 074°10'0 0.0
2016-May-24 11:34N 40°38' W 074°10'0 0.0
2016-May-24 10:33N 40°38' W 074°10'0 0.0
2016-May-24 09:33N 40°38' W 074°10'0 0.0
2016-May-24 08:32N 40°38' W 074°10'0 0.0
2016-May-24 07:33N 40°38' W 074°10'0 0.0
2016-May-24 06:33N 40°38' W 074°10'1 0.5
2016-May-24 05:32N 40°39' W 074°11'1 0.4
2016-May-24 02:33N 40°39' W 074°09'1 1.2
2016-May-24 01:33N 40°39' W 074°07'2 1.9
2016-May-24 00:33N 40°38' W 074°10'0 0.0
2016-May-23 23:33N 40°38' W 074°10'0 0.0
2016-May-23 22:18N 40°38' W 074°10'0 0.0
2016-May-23 21:33N 40°38' W 074°10'0 0.0
2016-May-23 20:32N 40°38' W 074°10'0 0.0
2016-May-23 19:33N 40°38' W 074°10'0 0.0
2016-May-23 18:33N 40°38' W 074°10'0 0.0
2016-May-23 17:33N 40°38' W 074°10'0 0.0
2016-May-23 16:33N 40°38' W 074°10'0 0.0
2016-May-23 15:32N 40°38' W 074°10'0 0.0
2016-May-23 14:31N 40°38' W 074°10'0 0.0
2016-May-23 13:33N 40°38' W 074°10'0 0.0
2016-May-23 12:32N 40°38' W 074°10'0 0.0
2016-May-23 11:28N 40°38' W 074°10'0 0.0
2016-May-23 10:33N 40°38' W 074°10'0 0.0
2016-May-23 09:33N 40°38' W 074°10'0 0.0
2016-May-23 08:33N 40°38' W 074°10'0 0.0
2016-May-23 07:30N 40°38' W 074°10'0 0.0
2016-May-23 06:32N 40°38' W 074°10'0 0.0
2016-May-23 05:27N 40°38' W 074°10'0 0.0
2016-May-23 04:27N 40°38' W 074°10'0 0.0
2016-May-23 03:33N 40°38' W 074°10'3 3.2
2016-May-23 02:33N 40°39' W 074°06'2 1.8
2016-May-23 01:32N 40°39' W 074°08'4 3.8
2016-May-23 00:33N 40°42' W 074°07'4 4.3
2016-May-22 23:33N 40°38' W 074°10'0 0.0
2016-May-22 22:31N 40°38' W 074°10'0 0.0
2016-May-22 19:33N 40°38' W 074°10'0 0.0
2016-May-22 18:33N 40°38' W 074°10'0 0.0
2016-May-22 17:29N 40°38' W 074°10'0 0.0
2016-May-22 16:26N 40°38' W 074°10'1 1.1
2016-May-22 15:33N 40°39' W 074°09'3 3.5
2016-May-22 14:33N 40°42' W 074°07'6 0.5
2016-May-22 01:13N 40°37' W 074°12'5 7.4
2016-May-22 00:33N 40°39' W 074°06'3 2.9
2016-May-21 23:33N 40°38' W 074°10'0 0.0
2016-May-21 22:33N 40°38' W 074°10'0 0.0
2016-May-21 21:33N 40°38' W 074°10'0 0.0
2016-May-21 20:33N 40°38' W 074°10'0 0.0
2016-May-21 19:33N 40°38' W 074°10'0 0.0
2016-May-21 18:33N 40°38' W 074°10'0 0.0
2016-May-21 17:33N 40°38' W 074°10'0 0.0
2016-May-21 16:33N 40°38' W 074°10'0 0.0
2016-May-21 15:33N 40°38' W 074°10'0 0.0
2016-May-21 14:33N 40°38' W 074°10'0 0.0
2016-May-21 13:33N 40°38' W 074°10'0 0.0
2016-May-21 12:33N 40°38' W 074°10'0 0.0
2016-May-21 11:33N 40°38' W 074°10'0 0.0
2016-May-21 10:33N 40°38' W 074°10'0 0.0
2016-May-21 09:34N 40°38' W 074°10'0 0.0
2016-May-21 08:33N 40°38' W 074°10'0 0.0
2016-May-21 07:33N 40°38' W 074°10'0 0.0
2016-May-21 06:33N 40°38' W 074°10'0 0.0
2016-May-21 05:33N 40°38' W 074°10'0 0.0
2016-May-21 04:33N 40°38' W 074°10'9 8.7
2016-May-21 03:33N 40°42' W 073°60'1 0.9
2016-May-21 02:33N 40°42' W 073°58'3 2.7
2016-May-21 01:33N 40°40' W 074°01'0 0.1
2016-May-21 00:33N 40°40' W 074°01'0 0.0
2016-May-20 23:33N 40°40' W 074°01'0 0.0
2016-May-20 22:33N 40°40' W 074°01'0 0.0
2016-May-20 21:33N 40°40' W 074°01'0 0.0
2016-May-20 20:33N 40°40' W 074°01'0 0.0
2016-May-20 19:33N 40°40' W 074°01'0 0.0
2016-May-20 18:33N 40°40' W 074°01'0 0.0
2016-May-20 17:33N 40°40' W 074°01'0 0.0
2016-May-20 16:33N 40°40' W 074°01'0 0.0
2016-May-20 15:33N 40°40' W 074°01'0 0.0
2016-May-20 14:33N 40°40' W 074°01'0 0.0
2016-May-20 13:33N 40°40' W 074°01'1 0.9
2016-May-20 12:33N 40°40' W 074°02'5 5.3
2016-May-20 11:33N 40°38' W 074°09'1 0.8
2016-May-20 10:26N 40°39' W 074°10'0 0.0
2016-May-20 09:30N 40°39' W 074°10'0 0.0
2016-May-20 08:32N 40°39' W 074°10'0 0.0
2016-May-20 07:31N 40°39' W 074°10'0 0.0
2016-May-20 06:34N 40°39' W 074°10'0 0.0
2016-May-20 05:34N 40°39' W 074°10'0 0.0
2016-May-20 04:33N 40°39' W 074°10'0 0.0
2016-May-20 03:33N 40°39' W 074°10'0 0.0
2016-May-20 02:33N 40°39' W 074°10'0 0.0
2016-May-20 01:33N 40°39' W 074°10'0 0.0
2016-May-20 00:33N 40°39' W 074°10'0 0.0
2016-May-19 23:32N 40°39' W 074°10'  

Dump ship's entire track history